Holloman Air Force Base

Airport
ICAO code: 
KHMN
Summary
ICAO Region: 
NAM
Territory: 
Location: 
Alamogordo, New Mexico,
Elevation: 
4093 ft
Coordinates: 
Aerial View: 
32° 51' 4.36" N, 106° 6' 22.356" W
Airport RE: 
Hot and High Operations
Airport WX: 
Mountain Waves
Metar
Observation
KHMN 020358Z AUTO 06007KT 10SM CLR 07/M05 A3026 RMK AO2 SLP225 T00661051 $
Station
Holloman Air Force Base
Date/Time
2021-12-02 03:58:00
Wind direction
60°
Wind speed
07 kts
Lowest cloud amount
n/a
Temperature
6.6°C
Dew point
-5.1°C
Humidity
42%
Weather condition
n/a

Description

Holloman Air Force Base is a United States Air Force installation located 10 km southwest of the central business district of Alamogordo, a city in Otero County, New Mexico.

Climatology

A semi-arid steppe climate (Köppen climate classification BSk), with generally cold, dry winters and hot summers. Late spring and early summer is on average the wettest period of the year.

Runways

Designator Length Width Surface Rops
4/22 3223 91 PEM No/No
16/34 3698 46 PEM No/No
7/25 3901 46 PEM No/No
Airport map: 
Aerial View: 

SKYbrary Partners:

Safety knowledge contributed by: